sensor_id;sensor_type;location;lat;lon;timestamp;P1;durP1;ratioP1;P2;durP2;ratioP2
66707;SDS011;53622;0.000;0.000;2023-11-21T00:00:09;2.83;;;1.75;;
66707;SDS011;53622;0.000;0.000;2023-11-21T00:02:40;2.47;;;1.85;;
66707;SDS011;53622;0.000;0.000;2023-11-21T00:05:11;2.10;;;1.80;;
66707;SDS011;53622;0.000;0.000;2023-11-21T00:07:41;2.15;;;1.77;;
66707;SDS011;53622;0.000;0.000;2023-11-21T00:10:11;1.83;;;1.73;;
66707;SDS011;53622;0.000;0.000;2023-11-21T00:12:43;2.40;;;1.60;;
66707;SDS011;53622;0.000;0.000;2023-11-21T00:15:11;2.15;;;1.95;;
66707;SDS011;53622;0.000;0.000;2023-11-21T00:17:40;2.53;;;1.73;;
66707;SDS011;53622;0.000;0.000;2023-11-21T00:20:11;2.92;;;1.90;;
66707;SDS011;53622;0.000;0.000;2023-11-21T00:22:41;2.95;;;1.80;;
66707;SDS011;53622;0.000;0.000;2023-11-21T00:25:10;2.45;;;2.03;;
66707;SDS011;53622;0.000;0.000;2023-11-21T00:27:39;2.08;;;1.67;;
66707;SDS011;53622;0.000;0.000;2023-11-21T00:30:09;2.88;;;1.85;;
66707;SDS011;53622;0.000;0.000;2023-11-21T00:32:39;2.50;;;1.90;;
66707;SDS011;53622;0.000;0.000;2023-11-21T00:35:08;2.28;;;1.90;;
66707;SDS011;53622;0.000;0.000;2023-11-21T00:37:38;2.67;;;1.85;;
66707;SDS011;53622;0.000;0.000;2023-11-21T00:40:07;1.73;;;1.42;;
66707;SDS011;53622;0.000;0.000;2023-11-21T00:42:37;1.83;;;1.67;;
66707;SDS011;53622;0.000;0.000;2023-11-21T00:45:06;2.13;;;1.50;;
66707;SDS011;53622;0.000;0.000;2023-11-21T00:47:36;3.38;;;2.10;;
66707;SDS011;53622;0.000;0.000;2023-11-21T00:50:06;2.10;;;1.55;;
66707;SDS011;53622;0.000;0.000;2023-11-21T00:52:38;1.60;;;1.50;;
66707;SDS011;53622;0.000;0.000;2023-11-21T00:55:07;2.30;;;2.08;;
66707;SDS011;53622;0.000;0.000;2023-11-21T00:57:37;3.30;;;1.60;;
66707;SDS011;53622;0.000;0.000;2023-11-21T01:00:07;2.15;;;1.83;;
66707;SDS011;53622;0.000;0.000;2023-11-21T01:02:40;2.50;;;1.88;;
66707;SDS011;53622;0.000;0.000;2023-11-21T01:05:10;1.98;;;1.77;;
66707;SDS011;53622;0.000;0.000;2023-11-21T01:07:41;1.95;;;1.50;;
66707;SDS011;53622;0.000;0.000;2023-11-21T01:10:10;2.05;;;1.45;;
66707;SDS011;53622;0.000;0.000;2023-11-21T01:12:39;2.42;;;1.50;;
66707;SDS011;53622;0.000;0.000;2023-11-21T01:15:08;2.38;;;1.70;;
66707;SDS011;53622;0.000;0.000;2023-11-21T01:17:39;1.90;;;1.70;;
66707;SDS011;53622;0.000;0.000;2023-11-21T01:20:09;2.88;;;1.83;;
66707;SDS011;53622;0.000;0.000;2023-11-21T01:22:42;2.20;;;1.63;;
66707;SDS011;53622;0.000;0.000;2023-11-21T01:25:11;1.70;;;1.52;;
66707;SDS011;53622;0.000;0.000;2023-11-21T01:27:42;1.85;;;1.60;;
66707;SDS011;53622;0.000;0.000;2023-11-21T01:30:11;2.28;;;1.40;;
66707;SDS011;53622;0.000;0.000;2023-11-21T01:32:40;2.20;;;1.55;;
66707;SDS011;53622;0.000;0.000;2023-11-21T01:35:09;3.08;;;1.60;;
66707;SDS011;53622;0.000;0.000;2023-11-21T01:37:38;1.75;;;1.40;;
66707;SDS011;53622;0.000;0.000;2023-11-21T01:40:09;1.48;;;1.20;;
66707;SDS011;53622;0.000;0.000;2023-11-21T01:42:41;1.98;;;1.55;;
66707;SDS011;53622;0.000;0.000;2023-11-21T01:45:11;2.78;;;1.50;;
66707;SDS011;53622;0.000;0.000;2023-11-21T01:47:41;2.22;;;1.60;;
66707;SDS011;53622;0.000;0.000;2023-11-21T01:50:14;1.55;;;1.38;;
66707;SDS011;53622;0.000;0.000;2023-11-21T01:52:45;2.63;;;1.40;;
66707;SDS011;53622;0.000;0.000;2023-11-21T01:55:17;1.30;;;1.10;;
66707;SDS011;53622;0.000;0.000;2023-11-21T01:57:55;2.22;;;1.40;;
66707;SDS011;53622;0.000;0.000;2023-11-21T02:00:24;1.35;;;1.05;;
66707;SDS011;53622;0.000;0.000;2023-11-21T02:02:55;1.95;;;1.23;;
66707;SDS011;53622;0.000;0.000;2023-11-21T02:05:24;1.92;;;1.40;;
66707;SDS011;53622;0.000;0.000;2023-11-21T02:07:53;1.98;;;1.30;;
66707;SDS011;53622;0.000;0.000;2023-11-21T02:10:24;1.42;;;1.20;;
66707;SDS011;53622;0.000;0.000;2023-11-21T02:12:53;1.38;;;1.27;;
66707;SDS011;53622;0.000;0.000;2023-11-21T02:15:23;2.85;;;1.50;;
66707;SDS011;53622;0.000;0.000;2023-11-21T02:17:55;1.20;;;1.00;;
66707;SDS011;53622;0.000;0.000;2023-11-21T02:20:26;1.70;;;1.30;;
66707;SDS011;53622;0.000;0.000;2023-11-21T02:22:58;1.90;;;1.30;;
66707;SDS011;53622;0.000;0.000;2023-11-21T02:25:28;2.00;;;1.23;;
66707;SDS011;53622;0.000;0.000;2023-11-21T02:27:59;1.50;;;1.27;;
66707;SDS011;53622;0.000;0.000;2023-11-21T02:30:29;2.88;;;1.30;;
66707;SDS011;53622;0.000;0.000;2023-11-21T02:32:59;1.90;;;1.20;;
66707;SDS011;53622;0.000;0.000;2023-11-21T02:35:30;1.75;;;1.15;;
66707;SDS011;53622;0.000;0.000;2023-11-21T02:38:00;1.65;;;1.20;;
66707;SDS011;53622;0.000;0.000;2023-11-21T02:40:29;1.40;;;1.15;;
66707;SDS011;53622;0.000;0.000;2023-11-21T02:42:58;1.00;;;0.90;;
66707;SDS011;53622;0.000;0.000;2023-11-21T02:45:27;1.33;;;1.10;;
66707;SDS011;53622;0.000;0.000;2023-11-21T02:47:56;1.10;;;1.00;;
66707;SDS011;53622;0.000;0.000;2023-11-21T02:50:25;1.30;;;1.00;;
66707;SDS011;53622;0.000;0.000;2023-11-21T02:52:55;1.30;;;0.90;;
66707;SDS011;53622;0.000;0.000;2023-11-21T02:55:28;1.38;;;0.93;;
66707;SDS011;53622;0.000;0.000;2023-11-21T02:57:57;1.98;;;1.20;;
66707;SDS011;53622;0.000;0.000;2023-11-21T03:00:27;1.27;;;1.00;;
66707;SDS011;53622;0.000;0.000;2023-11-21T03:02:56;1.65;;;1.00;;
66707;SDS011;53622;0.000;0.000;2023-11-21T03:05:25;1.95;;;1.20;;
66707;SDS011;53622;0.000;0.000;2023-11-21T03:07:56;1.48;;;1.15;;
66707;SDS011;53622;0.000;0.000;2023-11-21T03:10:25;1.27;;;0.85;;
66707;SDS011;53622;0.000;0.000;2023-11-21T03:12:56;1.33;;;0.90;;
66707;SDS011;53622;0.000;0.000;2023-11-21T03:15:25;1.10;;;1.00;;
66707;SDS011;53622;0.000;0.000;2023-11-21T03:17:54;1.88;;;1.00;;
66707;SDS011;53622;0.000;0.000;2023-11-21T03:20:23;0.75;;;0.75;;
66707;SDS011;53622;0.000;0.000;2023-11-21T03:22:52;1.63;;;0.93;;
66707;SDS011;53622;0.000;0.000;2023-11-21T03:25:21;2.38;;;0.90;;
66707;SDS011;53622;0.000;0.000;2023-11-21T03:27:51;0.95;;;0.73;;
66707;SDS011;53622;0.000;0.000;2023-11-21T03:30:21;1.75;;;0.95;;
66707;SDS011;53622;0.000;0.000;2023-11-21T03:32:50;1.40;;;0.95;;
66707;SDS011;53622;0.000;0.000;2023-11-21T03:35:19;1.40;;;0.70;;
66707;SDS011;53622;0.000;0.000;2023-11-21T03:37:49;1.02;;;0.93;;
66707;SDS011;53622;0.000;0.000;2023-11-21T03:40:17;0.98;;;0.93;;
66707;SDS011;53622;0.000;0.000;2023-11-21T03:42:48;2.33;;;0.93;;
66707;SDS011;53622;0.000;0.000;2023-11-21T03:45:21;1.42;;;0.90;;
66707;SDS011;53622;0.000;0.000;2023-11-21T03:47:50;1.67;;;0.90;;
66707;SDS011;53622;0.000;0.000;2023-11-21T03:50:19;2.40;;;1.02;;
66707;SDS011;53622;0.000;0.000;2023-11-21T03:52:47;1.00;;;0.90;;
66707;SDS011;53622;0.000;0.000;2023-11-21T03:55:16;1.02;;;0.68;;
66707;SDS011;53622;0.000;0.000;2023-11-21T03:57:45;1.65;;;0.90;;
66707;SDS011;53622;0.000;0.000;2023-11-21T04:00:14;1.45;;;1.08;;
66707;SDS011;53622;0.000;0.000;2023-11-21T04:02:44;0.77;;;0.77;;
66707;SDS011;53622;0.000;0.000;2023-11-21T04:05:14;1.90;;;0.90;;
66707;SDS011;53622;0.000;0.000;2023-11-21T04:07:43;1.05;;;0.85;;
66707;SDS011;53622;0.000;0.000;2023-11-21T04:10:11;1.48;;;1.00;;
66707;SDS011;53622;0.000;0.000;2023-11-21T04:12:40;2.25;;;1.02;;
66707;SDS011;53622;0.000;0.000;2023-11-21T04:15:09;1.27;;;1.08;;
66707;SDS011;53622;0.000;0.000;2023-11-21T04:17:39;1.05;;;0.73;;
66707;SDS011;53622;0.000;0.000;2023-11-21T04:20:10;1.00;;;0.82;;
66707;SDS011;53622;0.000;0.000;2023-11-21T04:22:39;2.78;;;1.00;;
66707;SDS011;53622;0.000;0.000;2023-11-21T04:25:12;1.17;;;0.70;;
66707;SDS011;53622;0.000;0.000;2023-11-21T04:27:43;1.27;;;0.88;;
66707;SDS011;53622;0.000;0.000;2023-11-21T04:30:12;1.10;;;0.75;;
66707;SDS011;53622;0.000;0.000;2023-11-21T04:32:42;0.77;;;0.77;;
66707;SDS011;53622;0.000;0.000;2023-11-21T04:35:12;2.72;;;0.82;;
66707;SDS011;53622;0.000;0.000;2023-11-21T04:37:41;1.00;;;0.90;;
66707;SDS011;53622;0.000;0.000;2023-11-21T04:40:10;1.25;;;0.60;;
66707;SDS011;53622;0.000;0.000;2023-11-21T04:42:39;1.33;;;0.80;;
66707;SDS011;53622;0.000;0.000;2023-11-21T04:45:08;1.20;;;1.00;;
66707;SDS011;53622;0.000;0.000;2023-11-21T04:47:39;1.45;;;0.90;;
66707;SDS011;53622;0.000;0.000;2023-11-21T04:50:09;1.05;;;0.90;;
66707;SDS011;53622;0.000;0.000;2023-11-21T04:52:39;3.05;;;1.08;;
66707;SDS011;53622;0.000;0.000;2023-11-21T04:55:08;1.95;;;0.90;;
66707;SDS011;53622;0.000;0.000;2023-11-21T04:57:38;1.23;;;0.70;;
66707;SDS011;53622;0.000;0.000;2023-11-21T05:00:09;0.90;;;0.80;;
66707;SDS011;53622;0.000;0.000;2023-11-21T05:02:39;1.05;;;0.90;;
66707;SDS011;53622;0.000;0.000;2023-11-21T05:05:11;1.10;;;0.80;;
66707;SDS011;53622;0.000;0.000;2023-11-21T05:07:42;0.88;;;0.80;;
66707;SDS011;53622;0.000;0.000;2023-11-21T05:10:12;0.90;;;0.60;;
66707;SDS011;53622;0.000;0.000;2023-11-21T05:12:42;1.05;;;0.93;;
66707;SDS011;53622;0.000;0.000;2023-11-21T05:15:13;0.95;;;0.80;;
66707;SDS011;53622;0.000;0.000;2023-11-21T05:17:44;1.08;;;0.80;;
66707;SDS011;53622;0.000;0.000;2023-11-21T05:20:14;0.95;;;0.70;;
66707;SDS011;53622;0.000;0.000;2023-11-21T05:22:49;1.85;;;0.90;;
66707;SDS011;53622;0.000;0.000;2023-11-21T05:25:18;0.80;;;0.80;;
66707;SDS011;53622;0.000;0.000;2023-11-21T05:27:47;1.38;;;0.88;;
66707;SDS011;53622;0.000;0.000;2023-11-21T05:30:16;3.30;;;0.90;;
66707;SDS011;53622;0.000;0.000;2023-11-21T05:32:45;1.92;;;0.80;;
66707;SDS011;53622;0.000;0.000;2023-11-21T05:35:14;2.08;;;0.77;;
66707;SDS011;53622;0.000;0.000;2023-11-21T05:37:44;1.75;;;0.93;;
66707;SDS011;53622;0.000;0.000;2023-11-21T05:40:15;3.38;;;0.90;;
66707;SDS011;53622;0.000;0.000;2023-11-21T05:42:45;3.20;;;0.80;;
66707;SDS011;53622;0.000;0.000;2023-11-21T05:45:13;1.60;;;0.90;;
66707;SDS011;53622;0.000;0.000;2023-11-21T05:47:43;4.25;;;1.00;;
66707;SDS011;53622;0.000;0.000;2023-11-21T05:50:14;3.13;;;0.88;;
66707;SDS011;53622;0.000;0.000;2023-11-21T05:52:44;8.13;;;1.25;;
66707;SDS011;53622;0.000;0.000;2023-11-21T05:55:16;3.10;;;1.13;;
66707;SDS011;53622;0.000;0.000;2023-11-21T05:57:46;4.18;;;0.90;;
66707;SDS011;53622;0.000;0.000;2023-11-21T06:00:15;2.88;;;1.00;;
66707;SDS011;53622;0.000;0.000;2023-11-21T06:02:48;1.95;;;0.88;;
66707;SDS011;53622;0.000;0.000;2023-11-21T06:05:20;1.33;;;0.85;;
66707;SDS011;53622;0.000;0.000;2023-11-21T06:07:50;3.40;;;0.93;;
66707;SDS011;53622;0.000;0.000;2023-11-21T06:10:21;2.22;;;0.85;;
66707;SDS011;53622;0.000;0.000;2023-11-21T06:12:51;2.65;;;0.75;;
66707;SDS011;53622;0.000;0.000;2023-11-21T06:15:20;1.95;;;0.80;;
66707;SDS011;53622;0.000;0.000;2023-11-21T06:17:50;2.35;;;1.08;;
66707;SDS011;53622;0.000;0.000;2023-11-21T06:20:21;1.13;;;0.90;;
66707;SDS011;53622;0.000;0.000;2023-11-21T06:22:50;3.00;;;0.90;;
66707;SDS011;53622;0.000;0.000;2023-11-21T06:25:21;1.40;;;1.00;;
66707;SDS011;53622;0.000;0.000;2023-11-21T06:27:50;1.83;;;1.20;;
66707;SDS011;53622;0.000;0.000;2023-11-21T06:30:20;2.97;;;0.77;;
66707;SDS011;53622;0.000;0.000;2023-11-21T06:32:50;1.30;;;0.90;;
66707;SDS011;53622;0.000;0.000;2023-11-21T06:35:20;3.00;;;0.93;;
66707;SDS011;53622;0.000;0.000;2023-11-21T06:37:49;2.25;;;1.27;;
66707;SDS011;53622;0.000;0.000;2023-11-21T06:40:20;4.22;;;1.23;;
66707;SDS011;53622;0.000;0.000;2023-11-21T06:42:49;2.53;;;1.13;;
66707;SDS011;53622;0.000;0.000;2023-11-21T06:45:18;2.20;;;1.20;;
66707;SDS011;53622;0.000;0.000;2023-11-21T06:47:48;1.52;;;1.13;;
66707;SDS011;53622;0.000;0.000;2023-11-21T06:50:17;1.40;;;1.00;;
66707;SDS011;53622;0.000;0.000;2023-11-21T06:52:46;3.90;;;1.10;;
66707;SDS011;53622;0.000;0.000;2023-11-21T06:55:15;3.03;;;0.95;;
66707;SDS011;53622;0.000;0.000;2023-11-21T06:57:45;1.10;;;0.73;;
66707;SDS011;53622;0.000;0.000;2023-11-21T07:00:15;1.40;;;1.17;;
66707;SDS011;53622;0.000;0.000;2023-11-21T07:02:45;1.15;;;0.70;;
66707;SDS011;53622;0.000;0.000;2023-11-21T07:05:14;1.35;;;0.98;;
66707;SDS011;53622;0.000;0.000;2023-11-21T07:07:47;1.33;;;0.90;;
66707;SDS011;53622;0.000;0.000;2023-11-21T07:10:17;2.38;;;1.00;;
66707;SDS011;53622;0.000;0.000;2023-11-21T07:12:47;2.05;;;0.90;;
66707;SDS011;53622;0.000;0.000;2023-11-21T07:15:18;1.08;;;0.77;;
66707;SDS011;53622;0.000;0.000;2023-11-21T07:17:46;1.42;;;0.82;;
66707;SDS011;53622;0.000;0.000;2023-11-21T07:20:16;1.40;;;0.93;;
66707;SDS011;53622;0.000;0.000;2023-11-21T07:22:45;2.40;;;1.00;;
66707;SDS011;53622;0.000;0.000;2023-11-21T07:25:14;1.70;;;0.95;;
66707;SDS011;53622;0.000;0.000;2023-11-21T07:27:43;1.52;;;0.90;;
66707;SDS011;53622;0.000;0.000;2023-11-21T07:30:13;2.40;;;0.95;;
66707;SDS011;53622;0.000;0.000;2023-11-21T07:32:42;1.50;;;0.70;;
66707;SDS011;53622;0.000;0.000;2023-11-21T07:35:12;0.98;;;0.80;;
66707;SDS011;53622;0.000;0.000;2023-11-21T07:37:40;2.75;;;0.90;;
66707;SDS011;53622;0.000;0.000;2023-11-21T07:40:10;1.45;;;0.80;;
66707;SDS011;53622;0.000;0.000;2023-11-21T07:42:40;1.13;;;0.70;;
66707;SDS011;53622;0.000;0.000;2023-11-21T07:45:10;0.90;;;0.73;;
66707;SDS011;53622;0.000;0.000;2023-11-21T07:47:40;2.33;;;1.10;;
66707;SDS011;53622;0.000;0.000;2023-11-21T07:50:09;1.48;;;0.90;;
66707;SDS011;53622;0.000;0.000;2023-11-21T07:52:40;0.90;;;0.80;;
66707;SDS011;53622;0.000;0.000;2023-11-21T07:55:09;3.08;;;0.80;;
66707;SDS011;53622;0.000;0.000;2023-11-21T07:57:38;1.08;;;0.80;;
66707;SDS011;53622;0.000;0.000;2023-11-21T08:00:07;1.60;;;0.80;;
66707;SDS011;53622;0.000;0.000;2023-11-21T08:02:40;1.10;;;0.80;;
66707;SDS011;53622;0.000;0.000;2023-11-21T08:05:12;1.05;;;0.80;;
66707;SDS011;53622;0.000;0.000;2023-11-21T08:07:54;1.23;;;0.82;;
66707;SDS011;53622;0.000;0.000;2023-11-21T08:10:23;1.75;;;0.80;;
66707;SDS011;53622;0.000;0.000;2023-11-21T08:12:52;1.40;;;0.82;;
66707;SDS011;53622;0.000;0.000;2023-11-21T08:15:20;1.10;;;0.60;;
66707;SDS011;53622;0.000;0.000;2023-11-21T08:17:50;1.77;;;0.80;;
66707;SDS011;53622;0.000;0.000;2023-11-21T08:20:19;1.80;;;0.90;;
66707;SDS011;53622;0.000;0.000;2023-11-21T08:22:50;1.77;;;0.85;;
66707;SDS011;53622;0.000;0.000;2023-11-21T08:25:19;0.82;;;0.70;;
66707;SDS011;53622;0.000;0.000;2023-11-21T08:27:49;0.77;;;0.70;;
66707;SDS011;53622;0.000;0.000;2023-11-21T08:30:17;1.70;;;0.85;;
66707;SDS011;53622;0.000;0.000;2023-11-21T08:32:47;2.42;;;0.68;;
66707;SDS011;53622;0.000;0.000;2023-11-21T08:35:18;0.95;;;0.70;;
66707;SDS011;53622;0.000;0.000;2023-11-21T08:37:46;0.98;;;0.63;;
66707;SDS011;53622;0.000;0.000;2023-11-21T08:40:15;1.35;;;0.70;;
66707;SDS011;53622;0.000;0.000;2023-11-21T08:42:44;1.08;;;0.77;;
66707;SDS011;53622;0.000;0.000;2023-11-21T08:45:14;1.45;;;0.70;;
66707;SDS011;53622;0.000;0.000;2023-11-21T08:47:44;1.27;;;0.73;;
66707;SDS011;53622;0.000;0.000;2023-11-21T08:50:14;1.48;;;0.93;;
66707;SDS011;53622;0.000;0.000;2023-11-21T08:52:44;1.88;;;0.80;;
66707;SDS011;53622;0.000;0.000;2023-11-21T08:55:14;1.23;;;0.80;;
66707;SDS011;53622;0.000;0.000;2023-11-21T08:57:43;1.48;;;0.90;;
66707;SDS011;53622;0.000;0.000;2023-11-21T09:00:13;1.08;;;0.90;;
66707;SDS011;53622;0.000;0.000;2023-11-21T09:02:44;0.80;;;0.80;;
66707;SDS011;53622;0.000;0.000;2023-11-21T09:05:14;0.80;;;0.63;;
66707;SDS011;53622;0.000;0.000;2023-11-21T09:07:45;1.65;;;0.90;;
66707;SDS011;53622;0.000;0.000;2023-11-21T09:10:15;1.45;;;0.73;;
66707;SDS011;53622;0.000;0.000;2023-11-21T09:12:44;1.25;;;0.82;;
66707;SDS011;53622;0.000;0.000;2023-11-21T09:15:13;1.73;;;0.90;;
66707;SDS011;53622;0.000;0.000;2023-11-21T09:17:42;1.42;;;0.88;;
66707;SDS011;53622;0.000;0.000;2023-11-21T09:20:12;1.83;;;0.60;;
66707;SDS011;53622;0.000;0.000;2023-11-21T09:22:42;1.35;;;0.90;;
66707;SDS011;53622;0.000;0.000;2023-11-21T09:25:14;1.80;;;0.95;;
66707;SDS011;53622;0.000;0.000;2023-11-21T09:27:44;1.45;;;0.90;;
66707;SDS011;53622;0.000;0.000;2023-11-21T09:30:13;1.58;;;0.88;;
66707;SDS011;53622;0.000;0.000;2023-11-21T09:32:43;1.35;;;0.70;;
66707;SDS011;53622;0.000;0.000;2023-11-21T09:35:13;1.15;;;0.80;;
66707;SDS011;53622;0.000;0.000;2023-11-21T09:37:43;1.30;;;0.82;;
66707;SDS011;53622;0.000;0.000;2023-11-21T09:40:17;0.98;;;0.70;;
66707;SDS011;53622;0.000;0.000;2023-11-21T09:42:53;0.90;;;0.73;;
66707;SDS011;53622;0.000;0.000;2023-11-21T09:45:27;1.15;;;0.73;;
66707;SDS011;53622;0.000;0.000;2023-11-21T09:47:58;1.15;;;0.80;;
66707;SDS011;53622;0.000;0.000;2023-11-21T09:50:27;1.40;;;0.90;;
66707;SDS011;53622;0.000;0.000;2023-11-21T09:52:57;1.23;;;0.80;;
66707;SDS011;53622;0.000;0.000;2023-11-21T09:55:35;1.23;;;0.80;;
66707;SDS011;53622;0.000;0.000;2023-11-21T09:58:07;0.68;;;0.52;;
66707;SDS011;53622;0.000;0.000;2023-11-21T10:00:39;1.10;;;0.70;;
66707;SDS011;53622;0.000;0.000;2023-11-21T10:03:09;1.10;;;0.90;;
66707;SDS011;53622;0.000;0.000;2023-11-21T10:05:39;1.67;;;0.82;;
66707;SDS011;53622;0.000;0.000;2023-11-21T10:08:09;0.88;;;0.70;;
66707;SDS011;53622;0.000;0.000;2023-11-21T10:10:42;0.95;;;0.60;;
66707;SDS011;53622;0.000;0.000;2023-11-21T10:13:13;1.10;;;0.68;;
66707;SDS011;53622;0.000;0.000;2023-11-21T10:15:44;1.45;;;0.60;;
66707;SDS011;53622;0.000;0.000;2023-11-21T10:18:17;1.58;;;0.80;;
66707;SDS011;53622;0.000;0.000;2023-11-21T10:20:45;0.90;;;0.90;;
66707;SDS011;53622;0.000;0.000;2023-11-21T10:23:20;2.03;;;1.00;;
66707;SDS011;53622;0.000;0.000;2023-11-21T10:25:52;0.98;;;0.60;;
66707;SDS011;53622;0.000;0.000;2023-11-21T10:28:24;1.08;;;0.60;;
66707;SDS011;53622;0.000;0.000;2023-11-21T10:30:53;1.67;;;0.65;;
66707;SDS011;53622;0.000;0.000;2023-11-21T10:33:26;0.57;;;0.57;;
66707;SDS011;53622;0.000;0.000;2023-11-21T10:35:56;1.17;;;0.70;;
66707;SDS011;53622;0.000;0.000;2023-11-21T10:38:26;1.08;;;0.88;;
66707;SDS011;53622;0.000;0.000;2023-11-21T10:40:58;1.05;;;0.88;;
66707;SDS011;53622;0.000;0.000;2023-11-21T10:43:28;0.85;;;0.68;;
66707;SDS011;53622;0.000;0.000;2023-11-21T10:45:58;1.13;;;0.70;;
66707;SDS011;53622;0.000;0.000;2023-11-21T10:48:27;1.25;;;0.70;;
66707;SDS011;53622;0.000;0.000;2023-11-21T10:50:56;1.00;;;0.80;;
66707;SDS011;53622;0.000;0.000;2023-11-21T10:53:28;0.80;;;0.73;;
66707;SDS011;53622;0.000;0.000;2023-11-21T10:56:03;0.85;;;0.80;;
66707;SDS011;53622;0.000;0.000;2023-11-21T10:58:37;0.95;;;0.75;;
66707;SDS011;53622;0.000;0.000;2023-11-21T11:01:07;1.88;;;0.70;;
66707;SDS011;53622;0.000;0.000;2023-11-21T11:03:38;1.40;;;0.90;;
66707;SDS011;53622;0.000;0.000;2023-11-21T11:06:07;0.90;;;0.70;;
66707;SDS011;53622;0.000;0.000;2023-11-21T11:08:38;0.70;;;0.60;;
66707;SDS011;53622;0.000;0.000;2023-11-21T11:11:09;1.35;;;0.80;;
66707;SDS011;53622;0.000;0.000;2023-11-21T11:13:38;0.77;;;0.73;;
66707;SDS011;53622;0.000;0.000;2023-11-21T11:16:12;1.23;;;0.77;;
66707;SDS011;53622;0.000;0.000;2023-11-21T11:18:44;0.95;;;0.73;;
66707;SDS011;53622;0.000;0.000;2023-11-21T11:21:22;1.20;;;0.80;;
66707;SDS011;53622;0.000;0.000;2023-11-21T11:24:11;0.73;;;0.70;;
66707;SDS011;53622;0.000;0.000;2023-11-21T11:26:55;1.00;;;0.75;;
66707;SDS011;53622;0.000;0.000;2023-11-21T11:29:29;1.10;;;0.75;;
66707;SDS011;53622;0.000;0.000;2023-11-21T11:32:06;1.23;;;0.80;;
66707;SDS011;53622;0.000;0.000;2023-11-21T11:34:54;1.60;;;0.95;;
66707;SDS011;53622;0.000;0.000;2023-11-21T11:37:29;1.23;;;0.90;;
66707;SDS011;53622;0.000;0.000;2023-11-21T11:39:58;1.33;;;1.00;;
66707;SDS011;53622;0.000;0.000;2023-11-21T11:42:29;1.45;;;1.00;;
66707;SDS011;53622;0.000;0.000;2023-11-21T11:45:00;0.85;;;0.85;;
66707;SDS011;53622;0.000;0.000;2023-11-21T11:47:31;1.27;;;0.90;;
66707;SDS011;53622;0.000;0.000;2023-11-21T11:50:02;1.33;;;0.98;;
66707;SDS011;53622;0.000;0.000;2023-11-21T11:52:36;0.98;;;0.75;;
66707;SDS011;53622;0.000;0.000;2023-11-21T11:55:07;1.30;;;0.93;;
66707;SDS011;53622;0.000;0.000;2023-11-21T11:57:39;1.20;;;0.90;;
66707;SDS011;53622;0.000;0.000;2023-11-21T12:00:13;1.38;;;0.80;;
66707;SDS011;53622;0.000;0.000;2023-11-21T12:02:52;1.20;;;1.08;;
66707;SDS011;53622;0.000;0.000;2023-11-21T12:05:24;1.02;;;0.93;;
66707;SDS011;53622;0.000;0.000;2023-11-21T12:07:55;1.45;;;0.82;;
66707;SDS011;53622;0.000;0.000;2023-11-21T12:10:25;1.52;;;0.98;;
66707;SDS011;53622;0.000;0.000;2023-11-21T12:12:57;1.38;;;0.80;;
66707;SDS011;53622;0.000;0.000;2023-11-21T12:15:28;0.85;;;0.65;;
66707;SDS011;53622;0.000;0.000;2023-11-21T12:17:58;1.33;;;0.95;;
66707;SDS011;53622;0.000;0.000;2023-11-21T12:20:27;1.13;;;0.80;;
66707;SDS011;53622;0.000;0.000;2023-11-21T12:22:56;0.88;;;0.63;;
66707;SDS011;53622;0.000;0.000;2023-11-21T12:25:28;1.00;;;0.70;;
66707;SDS011;53622;0.000;0.000;2023-11-21T12:28:00;0.82;;;0.75;;
66707;SDS011;53622;0.000;0.000;2023-11-21T12:30:30;1.20;;;0.80;;
66707;SDS011;53622;0.000;0.000;2023-11-21T12:33:03;1.63;;;1.05;;
66707;SDS011;53622;0.000;0.000;2023-11-21T12:35:34;0.80;;;0.80;;
66707;SDS011;53622;0.000;0.000;2023-11-21T12:38:03;1.20;;;0.80;;
66707;SDS011;53622;0.000;0.000;2023-11-21T12:40:33;1.30;;;0.70;;
66707;SDS011;53622;0.000;0.000;2023-11-21T12:43:03;0.75;;;0.65;;
66707;SDS011;53622;0.000;0.000;2023-11-21T12:45:32;1.15;;;0.73;;
66707;SDS011;53622;0.000;0.000;2023-11-21T12:48:01;1.02;;;0.68;;
66707;SDS011;53622;0.000;0.000;2023-11-21T12:50:36;0.60;;;0.50;;
66707;SDS011;53622;0.000;0.000;2023-11-21T12:53:06;1.00;;;0.80;;
66707;SDS011;53622;0.000;0.000;2023-11-21T12:55:37;1.00;;;0.77;;
66707;SDS011;53622;0.000;0.000;2023-11-21T12:58:09;1.10;;;0.63;;
66707;SDS011;53622;0.000;0.000;2023-11-21T13:00:40;0.73;;;0.60;;
66707;SDS011;53622;0.000;0.000;2023-11-21T13:03:11;0.80;;;0.70;;
66707;SDS011;53622;0.000;0.000;2023-11-21T13:05:46;1.63;;;0.80;;
66707;SDS011;53622;0.000;0.000;2023-11-21T13:08:19;0.60;;;0.60;;
66707;SDS011;53622;0.000;0.000;2023-11-21T13:10:50;0.70;;;0.60;;
66707;SDS011;53622;0.000;0.000;2023-11-21T13:13:22;1.48;;;0.75;;
66707;SDS011;53622;0.000;0.000;2023-11-21T13:15:52;0.57;;;0.55;;
66707;SDS011;53622;0.000;0.000;2023-11-21T13:18:23;0.77;;;0.70;;
66707;SDS011;53622;0.000;0.000;2023-11-21T13:20:54;1.17;;;0.70;;
66707;SDS011;53622;0.000;0.000;2023-11-21T13:23:24;0.75;;;0.50;;
66707;SDS011;53622;0.000;0.000;2023-11-21T13:25:53;0.73;;;0.57;;
66707;SDS011;53622;0.000;0.000;2023-11-21T13:28:34;0.93;;;0.80;;
66707;SDS011;53622;0.000;0.000;2023-11-21T13:31:05;0.98;;;0.70;;
66707;SDS011;53622;0.000;0.000;2023-11-21T13:33:48;1.00;;;0.68;;
66707;SDS011;53622;0.000;0.000;2023-11-21T13:36:23;0.50;;;0.50;;
66707;SDS011;53622;0.000;0.000;2023-11-21T13:38:57;0.85;;;0.70;;
66707;SDS011;53622;0.000;0.000;2023-11-21T13:41:31;0.70;;;0.50;;
66707;SDS011;53622;0.000;0.000;2023-11-21T13:44:01;1.40;;;0.70;;
66707;SDS011;53622;0.000;0.000;2023-11-21T13:46:42;1.20;;;0.68;;
66707;SDS011;53622;0.000;0.000;2023-11-21T13:49:13;0.70;;;0.60;;
66707;SDS011;53622;0.000;0.000;2023-11-21T13:51:43;0.70;;;0.57;;
66707;SDS011;53622;0.000;0.000;2023-11-21T13:54:15;1.05;;;0.65;;
66707;SDS011;53622;0.000;0.000;2023-11-21T13:56:44;1.20;;;0.70;;
66707;SDS011;53622;0.000;0.000;2023-11-21T13:59:17;0.65;;;0.55;;
66707;SDS011;53622;0.000;0.000;2023-11-21T14:01:50;0.82;;;0.63;;
66707;SDS011;53622;0.000;0.000;2023-11-21T14:04:25;0.80;;;0.45;;
66707;SDS011;53622;0.000;0.000;2023-11-21T14:07:18;0.95;;;0.70;;
66707;SDS011;53622;0.000;0.000;2023-11-21T14:09:57;0.70;;;0.55;;
66707;SDS011;53622;0.000;0.000;2023-11-21T14:12:27;0.70;;;0.60;;
66707;SDS011;53622;0.000;0.000;2023-11-21T14:15:06;0.80;;;0.60;;
66707;SDS011;53622;0.000;0.000;2023-11-21T14:17:37;0.70;;;0.50;;
66707;SDS011;53622;0.000;0.000;2023-11-21T14:20:08;0.68;;;0.50;;
66707;SDS011;53622;0.000;0.000;2023-11-21T14:22:44;0.60;;;0.40;;
66707;SDS011;53622;0.000;0.000;2023-11-21T14:25:13;0.75;;;0.50;;
66707;SDS011;53622;0.000;0.000;2023-11-21T14:27:44;1.10;;;1.00;;
66707;SDS011;53622;0.000;0.000;2023-11-21T14:30:14;0.73;;;0.40;;
66707;SDS011;53622;0.000;0.000;2023-11-21T14:32:46;1.00;;;0.60;;
66707;SDS011;53622;0.000;0.000;2023-11-21T14:35:15;0.25;;;0.25;;
66707;SDS011;53622;0.000;0.000;2023-11-21T14:37:44;1.08;;;0.60;;
66707;SDS011;53622;0.000;0.000;2023-11-21T14:40:13;0.50;;;0.50;;
66707;SDS011;53622;0.000;0.000;2023-11-21T14:42:44;0.80;;;0.60;;
66707;SDS011;53622;0.000;0.000;2023-11-21T14:45:16;0.70;;;0.60;;
66707;SDS011;53622;0.000;0.000;2023-11-21T14:47:47;0.63;;;0.50;;
66707;SDS011;53622;0.000;0.000;2023-11-21T14:50:23;2.28;;;0.50;;
66707;SDS011;53622;0.000;0.000;2023-11-21T14:53:11;0.50;;;0.32;;
66707;SDS011;53622;0.000;0.000;2023-11-21T14:55:40;0.50;;;0.40;;
66707;SDS011;53622;0.000;0.000;2023-11-21T14:58:21;1.75;;;0.60;;
66707;SDS011;53622;0.000;0.000;2023-11-21T15:00:55;0.95;;;0.82;;
66707;SDS011;53622;0.000;0.000;2023-11-21T15:03:26;3.95;;;0.40;;
66707;SDS011;53622;0.000;0.000;2023-11-21T15:06:17;2.80;;;0.80;;
66707;SDS011;53622;0.000;0.000;2023-11-21T15:08:53;5.15;;;0.60;;
66707;SDS011;53622;0.000;0.000;2023-11-21T15:11:44;3.88;;;0.82;;
66707;SDS011;53622;0.000;0.000;2023-11-21T15:14:14;1.38;;;0.80;;
66707;SDS011;53622;0.000;0.000;2023-11-21T15:16:50;1.75;;;0.98;;
66707;SDS011;53622;0.000;0.000;2023-11-21T15:19:20;2.90;;;1.00;;
66707;SDS011;53622;0.000;0.000;2023-11-21T15:21:53;2.42;;;0.90;;